Glen Allen, Virginia
Current Conditions -  °F | °C
As of 3:54 PM on Thursday 20 Nov 2014 (Local Time) from KOFP Reporting Station
Clear Clear  
Wind Chill: 54°   Ceiling: Unl
Heat Index: 54°   Visibility: 10mi
Dew Point: 25°   Wind: 10mph
Humidity: 33%   Direction: 220°SW
Pressure: 29.95"   Gusts: 20mph
Location:  37.67°N, 77.5°W
Report Text: KOFP 202054Z AUTO 22009G17KT 10SM CLR 12/M04 A2995 RMK AO2 SLP141 T01221039 55007
Loading
Personal Weather Stations






























Interactive Weather Map New forecast layout! Learn more

10-Day Weather Forecast

Advertisements
Track Severe Weather on mobile